Pagrindinis puslapis
METAR-TAF:

METAR-TAF

Oro uostai :

Villamontes, Bolivija

platuma: 21-15S, ilguma: 063-27W, Aukštis: 398 m

Dabartinis oras

Ataskaita buvo paskelbta 16 minutes, ne 16:00 UTC
Vėjas 4 kt iš Pietų
Temperatūra 15°C
Drėgmė 55%
Slėgis 1028 hPa
Matomumas 10 km arba daugiau
Su prošvaistėmis ne aukštis 2000 ft
Apsiniaukę ne aukštis 7000 ft

METAR: SLVM 271600Z 18004KT 9999 BKN020 OVC070 15/06 Q1028

Laikas: 12:16 (16:16 UTC)


TAF: trūkstamas

Orai ataskaitas ir orų prognozės (METAR, TAF).

turimą stotys yra geltonos ir raudonos taškus žemėlapyje.

Perkelti pele per norėdami pamatyti stoties vardą.

Tada spustelėkite, norėdami matyti oro stebėjimo ir prognozės.

Norėdami pakeisti žemėlapį: spustelėkite ant žalios mygtukų su juodo kryžiaus žemyn,; žalią mygtuką su brūkšneliu, jei norite nutolinti; arba žalių rodyklių gretimoms žemėlapius.


METAR-TAF: